Lakeland, Florida
Current Conditions -  °F | °C
As of 6:56 PM on Monday 20 Oct 2014 (Local Time) from KLAL Reporting Station
Broken Clouds Broken Clouds  
Wind Chill: 27°   Ceiling: 25000
Heat Index: 28°   Visibility: 15mi
Dew Point: 18°   Wind: 0mph
Humidity: 58%   Direction: NA
Pressure: 29.96"   Gusts: NA
Location:  28.04°N, 81.95°W
Report Text: KLAL 202256Z 00000KT 15SM FEW055 BKN250 27/18 A2996
Loading
Personal Weather Stations






























Interactive Weather Map
Tropical Storm Tracking
New forecast layout! Learn more

10-Day Weather Forecast

Advertisements
Track Severe Weather on mobile